KRAL/RAL METAR and TAF weather

Enter ICAO airport designator
Station Type Date Time Source
KRAL METAR 2019/10/21 02:53 UTC NOAA

KRAL 210253Z 04003KT 10SM CLR 25/M01 A2990 RMK AO2 SLP111 T02501011 53012


Station Type Date Time Source
KRAL Decoded METAR 2019/10/21 02:53 UTC NOAA

RIVERSIDE MUNICIPAL AIRPORT , CA, United States (KRAL) 33-57N 117-27W 252M
Oct 20, 2019 - 10:53 PM EDT / 2019.10.21 0253 UTC
Wind: from the NE (040 degrees) at 3 MPH (3 KT):0
Visibility: 10 mile(s):0
Sky conditions: clear
Temperature: 77.0 F (25.0 C)
Dew Point: 30.0 F (-1.1 C)
Relative Humidity: 17%
Pressure (altimeter): 29.9 in. Hg (1012 hPa)
Pressure tendency: 0.04 inches (1.2 hPa) higher than three hours ago
ob: KRAL 210253Z 04003KT 10SM CLR 25/M01 A2990 RMK AO2 SLP111 T02501011 53012
cycle: 3

Station Type Date Time Source
KRAL TAF UTC NOAA

Error!

Example: see airport list